In Rescue
 
Open Full Screen Window  High Contrast Mode
Wind Gusting 00 knots
12
November 29, 2022 8:33 AM CST
Weather Information
Wind Direction
  210 °
Wind Speed
  12 kt (14 mph)
Wind Gust
  00 kt (0 mph)
Altimeter
29.70 in
Visibility
10 SM
Temperature
-12° C
10° F
Dewpoint
-14° C
F
Humidity
85%
1hr Rain Fall
00.00 in.
24hr Rain Fall
00.00 in.
Sky Condition
Missing
VFR

METAR KCKN 291433Z 21012KT 10SM M12/M14 A2970 RMK AO2

FAA Disclaimer: The data displayed is for advisory purposes only and is not to be used for flight planning or operations.
Missing Cloud Data